Terminal Aerodrome Forecast
Issued by NWS Duluth, MN

Home | Current Version | Previous Version | Text Only | Print | Product List | Glossary On
Versions: 1 2 3 4 5 6 7 8 9 10 11 12 13 14 15 16 17 18 19 20 21 22 23 24 25 26 27 28
000
FTUS43 KDLH 250500
TAFINL
TAF
KINL 250532Z 2506/2606 17014KT P6SM VCSH OVC060
     FM250800 19010KT 5SM -SN BKN015 OVC035
      TEMPO 2509/2513 3SM -SN OVC008
     FM251500 24012KT 5SM -SN SCT008 OVC020
     FM251800 29015G28KT P6SM VCSH OVC025
     FM260000 32015KT P6SM BKN030=

USA.gov is the U.S. government's official web portal to all federal, state and local government web resources and services.